N737GG LIRA-LOWI
Flight info
| Callsign | N737GG |
|---|---|
| Flight time | 1h 1m |
| Altitude | 38000 |
| Route | SOVAN DCT AMTEL DCT NUKNI DCT DIKEM DCT EKPIS/N0366F160 M726 BRENO BRENO3A |
| Aircraft | B738/M-SDE2E3FGHIRWXY/LB1 |
Departure
| Time | 2026-05-08 12:46 |
|---|---|
| Airport | Ciampino–G. B. Pastine International Airport (LIRA) |
Arrival
| Time | 2026-05-08 13:47 |
|---|---|
| Airport | Innsbruck Airport (LOWI) |
| Time | Latitude | Longitude | Altitude | Speed | Heading |
|---|---|---|---|---|---|
| 2026-05-08 12:15 | 41.79095 | 12.59760 | 427 ft | 0 kts | 67° |
| 2026-05-08 12:36 | 41.79095 | 12.59759 | 426 ft | 0 kts | 67° |
| 2026-05-08 12:36 | 41.79092 | 12.59749 | 426 ft | 2 kts | 67° |
| 2026-05-08 12:36 | 41.79087 | 12.59734 | 426 ft | 0 kts | 66° |
| 2026-05-08 12:36 | 41.79081 | 12.59720 | 426 ft | 2 kts | 37° |
| 2026-05-08 12:37 | 41.79067 | 12.59712 | 426 ft | 2 kts | 1° |
| 2026-05-08 12:37 | 41.79058 | 12.59714 | 426 ft | 1 kts | 338° |
| 2026-05-08 12:37 | 41.79052 | 12.59718 | 426 ft | 0 kts | 339° |
| 2026-05-08 12:37 | 41.79053 | 12.59718 | 426 ft | 0 kts | 339° |
| 2026-05-08 12:39 | 41.79055 | 12.59716 | 426 ft | 2 kts | 339° |
| 2026-05-08 12:39 | 41.79108 | 12.59687 | 424 ft | 12 kts | 338° |
| 2026-05-08 12:39 | 41.79203 | 12.59630 | 421 ft | 13 kts | 328° |
| 2026-05-08 12:39 | 41.79286 | 12.59544 | 416 ft | 16 kts | 320° |
| 2026-05-08 12:40 | 41.79361 | 12.59464 | 411 ft | 15 kts | 322° |
| 2026-05-08 12:40 | 41.79427 | 12.59394 | 407 ft | 5 kts | 325° |
| 2026-05-08 12:40 | 41.79470 | 12.59415 | 407 ft | 9 kts | 50° |
| 2026-05-08 12:40 | 41.79518 | 12.59490 | 409 ft | 11 kts | 50° |
| 2026-05-08 12:41 | 41.79598 | 12.59516 | 408 ft | 16 kts | 334° |
| 2026-05-08 12:41 | 41.79723 | 12.59425 | 401 ft | 24 kts | 331° |
| 2026-05-08 12:41 | 41.79843 | 12.59345 | 393 ft | 22 kts | 333° |
| 2026-05-08 12:41 | 41.80007 | 12.59228 | 379 ft | 22 kts | 334° |
| 2026-05-08 12:42 | 41.80072 | 12.59186 | 375 ft | 12 kts | 334° |
| 2026-05-08 12:42 | 41.80168 | 12.59121 | 370 ft | 14 kts | 333° |
| 2026-05-08 12:42 | 41.80285 | 12.59040 | 363 ft | 23 kts | 332° |
| 2026-05-08 12:42 | 41.80349 | 12.58995 | 360 ft | 6 kts | 332° |
| 2026-05-08 12:43 | 41.80409 | 12.58953 | 358 ft | 13 kts | 332° |
| 2026-05-08 12:43 | 41.80512 | 12.58881 | 355 ft | 20 kts | 332° |
| 2026-05-08 12:43 | 41.80571 | 12.58839 | 353 ft | 9 kts | 333° |
| 2026-05-08 12:43 | 41.80650 | 12.58785 | 350 ft | 13 kts | 333° |
| 2026-05-08 12:44 | 41.80711 | 12.58755 | 348 ft | 6 kts | 4° |
| 2026-05-08 12:44 | 41.80721 | 12.58758 | 348 ft | 0 kts | 19° |
| 2026-05-08 12:44 | 41.80747 | 12.58793 | 348 ft | 10 kts | 63° |
| 2026-05-08 12:45 | 41.80770 | 12.58851 | 349 ft | 6 kts | 63° |
| 2026-05-08 12:45 | 41.80767 | 12.58906 | 350 ft | 7 kts | 134° |
| 2026-05-08 12:45 | 41.80587 | 12.59030 | 356 ft | 74 kts | 154° |
| 2026-05-08 12:45 | 41.79817 | 12.59565 | 418 ft | 167 kts | 155° |
| 2026-05-08 12:46 | 41.78598 | 12.60399 | 861 ft | 222 kts | 155° |
| 2026-05-08 12:46 | 41.77184 | 12.61507 | 1812 ft | 253 kts | 138° |
| 2026-05-08 12:46 | 41.76344 | 12.63489 | 3198 ft | 260 kts | 101° |
| 2026-05-08 12:46 | 41.76473 | 12.65906 | 4323 ft | 275 kts | 70° |
| 2026-05-08 12:47 | 41.77520 | 12.68044 | 5473 ft | 284 kts | 42° |
| 2026-05-08 12:47 | 41.79180 | 12.69337 | 6867 ft | 284 kts | 18° |
| 2026-05-08 12:47 | 41.81105 | 12.69654 | 8271 ft | 285 kts | 358° |
| 2026-05-08 12:47 | 41.83084 | 12.69118 | 9095 ft | 306 kts | 342° |
| 2026-05-08 12:48 | 41.85049 | 12.67920 | 10132 ft | 318 kts | 334° |
| 2026-05-08 12:48 | 41.86964 | 12.66470 | 11391 ft | 319 kts | 331° |
| 2026-05-08 12:48 | 41.88899 | 12.64944 | 12495 ft | 325 kts | 330° |
| 2026-05-08 12:48 | 41.90855 | 12.63402 | 13550 ft | 332 kts | 330° |
| 2026-05-08 12:49 | 41.92840 | 12.61838 | 14613 ft | 336 kts | 329° |
| 2026-05-08 12:49 | 41.94839 | 12.60264 | 15729 ft | 338 kts | 329° |
| 2026-05-08 12:49 | 41.96856 | 12.58674 | 16771 ft | 341 kts | 328° |
| 2026-05-08 12:49 | 41.98913 | 12.57048 | 17782 ft | 344 kts | 327° |
| 2026-05-08 12:50 | 42.00962 | 12.55427 | 18727 ft | 349 kts | 327° |
| 2026-05-08 12:50 | 42.03061 | 12.53765 | 19637 ft | 354 kts | 327° |
| 2026-05-08 12:50 | 42.05183 | 12.52084 | 20557 ft | 357 kts | 327° |
| 2026-05-08 12:50 | 42.07341 | 12.50375 | 21402 ft | 362 kts | 327° |
| 2026-05-08 12:51 | 42.09516 | 12.48651 | 22233 ft | 366 kts | 327° |
| 2026-05-08 12:51 | 42.13919 | 12.45158 | 23866 ft | 372 kts | 326° |
| 2026-05-08 12:51 | 42.16159 | 12.43376 | 24639 ft | 376 kts | 326° |
| 2026-05-08 12:52 | 42.18398 | 12.41597 | 25381 ft | 379 kts | 326° |
| 2026-05-08 12:52 | 42.22982 | 12.37943 | 26733 ft | 388 kts | 326° |
| 2026-05-08 12:52 | 42.25309 | 12.36087 | 27402 ft | 392 kts | 325° |
| 2026-05-08 12:53 | 42.27674 | 12.34200 | 28090 ft | 394 kts | 325° |
| 2026-05-08 12:53 | 42.30066 | 12.32290 | 28762 ft | 397 kts | 324° |
| 2026-05-08 12:53 | 42.32463 | 12.30374 | 29406 ft | 400 kts | 324° |
| 2026-05-08 12:53 | 42.34863 | 12.28455 | 30042 ft | 403 kts | 324° |
| 2026-05-08 12:54 | 42.37281 | 12.26519 | 30560 ft | 407 kts | 324° |
| 2026-05-08 12:54 | 42.39686 | 12.24593 | 31315 ft | 405 kts | 324° |
| 2026-05-08 12:54 | 42.42126 | 12.22639 | 32030 ft | 404 kts | 324° |
| 2026-05-08 12:54 | 42.44542 | 12.20701 | 32548 ft | 408 kts | 323° |
| 2026-05-08 12:55 | 42.46983 | 12.18739 | 33185 ft | 407 kts | 323° |
| 2026-05-08 12:55 | 42.49409 | 12.16789 | 33845 ft | 406 kts | 323° |
| 2026-05-08 12:55 | 42.51843 | 12.14829 | 34338 ft | 409 kts | 323° |
| 2026-05-08 12:55 | 42.54301 | 12.12845 | 34752 ft | 412 kts | 323° |
| 2026-05-08 12:56 | 42.56767 | 12.10851 | 35078 ft | 417 kts | 323° |
| 2026-05-08 12:56 | 42.59296 | 12.08805 | 35417 ft | 421 kts | 323° |
| 2026-05-08 12:56 | 42.61810 | 12.06773 | 35899 ft | 421 kts | 323° |
| 2026-05-08 12:56 | 42.64292 | 12.04766 | 36462 ft | 421 kts | 323° |
| 2026-05-08 12:57 | 42.66818 | 12.02723 | 37033 ft | 421 kts | 323° |
| 2026-05-08 12:57 | 42.69321 | 12.00697 | 37487 ft | 422 kts | 323° |
| 2026-05-08 12:57 | 42.71843 | 11.98652 | 37882 ft | 423 kts | 323° |
| 2026-05-08 12:57 | 42.74386 | 11.96586 | 37981 ft | 430 kts | 323° |
| 2026-05-08 12:58 | 42.79545 | 11.92388 | 37997 ft | 429 kts | 323° |
| 2026-05-08 12:58 | 42.84681 | 11.88229 | 37989 ft | 431 kts | 324° |
| 2026-05-08 12:59 | 42.89955 | 11.84290 | 37985 ft | 434 kts | 327° |
| 2026-05-08 12:59 | 42.95294 | 11.80453 | 37972 ft | 434 kts | 327° |
| 2026-05-08 13:00 | 43.00624 | 11.76603 | 37971 ft | 436 kts | 327° |
| 2026-05-08 13:00 | 43.05981 | 11.72699 | 37970 ft | 434 kts | 327° |
| 2026-05-08 13:01 | 43.11283 | 11.68810 | 37974 ft | 436 kts | 327° |
| 2026-05-08 13:01 | 43.16618 | 11.64887 | 37971 ft | 436 kts | 327° |
| 2026-05-08 13:02 | 43.22161 | 11.61463 | 37973 ft | 445 kts | 338° |
| 2026-05-08 13:02 | 43.28330 | 11.60009 | 37973 ft | 456 kts | 349° |
| 2026-05-08 13:03 | 43.34692 | 11.59452 | 37991 ft | 458 kts | 352° |
| 2026-05-08 13:03 | 43.41021 | 11.59015 | 37987 ft | 458 kts | 352° |
| 2026-05-08 13:04 | 43.47416 | 11.58541 | 37987 ft | 459 kts | 351° |
| 2026-05-08 13:04 | 43.53768 | 11.58030 | 37981 ft | 458 kts | 352° |
| 2026-05-08 13:05 | 43.60121 | 11.57489 | 38007 ft | 459 kts | 351° |
| 2026-05-08 13:05 | 43.66542 | 11.56929 | 38012 ft | 459 kts | 351° |
| 2026-05-08 13:06 | 43.72908 | 11.56366 | 38008 ft | 459 kts | 351° |
| 2026-05-08 13:06 | 43.79278 | 11.55796 | 38018 ft | 461 kts | 351° |
| 2026-05-08 13:07 | 43.85611 | 11.55284 | 38020 ft | 462 kts | 352° |
| 2026-05-08 13:07 | 43.92036 | 11.54854 | 38023 ft | 461 kts | 353° |
| 2026-05-08 13:08 | 43.98447 | 11.54437 | 38025 ft | 463 kts | 353° |
| 2026-05-08 13:08 | 44.04859 | 11.54014 | 38025 ft | 463 kts | 353° |
| 2026-05-08 13:09 | 44.11268 | 11.53587 | 38025 ft | 463 kts | 353° |
| 2026-05-08 13:09 | 44.17646 | 11.53156 | 38030 ft | 464 kts | 353° |
| 2026-05-08 13:10 | 44.24108 | 11.52713 | 38023 ft | 464 kts | 353° |
| 2026-05-08 13:10 | 44.30545 | 11.52267 | 38027 ft | 466 kts | 353° |
| 2026-05-08 13:11 | 44.36956 | 11.51827 | 38031 ft | 464 kts | 353° |
| 2026-05-08 13:11 | 44.43417 | 11.51381 | 38023 ft | 464 kts | 353° |
| 2026-05-08 13:12 | 44.49811 | 11.50934 | 38021 ft | 466 kts | 353° |
| 2026-05-08 13:12 | 44.56296 | 11.50483 | 38023 ft | 467 kts | 353° |
| 2026-05-08 13:13 | 44.62733 | 11.50034 | 38018 ft | 466 kts | 353° |
| 2026-05-08 13:13 | 44.69206 | 11.49584 | 38031 ft | 468 kts | 353° |
| 2026-05-08 13:14 | 44.75693 | 11.49133 | 38013 ft | 467 kts | 353° |
| 2026-05-08 13:14 | 44.82214 | 11.48678 | 38007 ft | 468 kts | 353° |
| 2026-05-08 13:15 | 44.88688 | 11.48226 | 38015 ft | 468 kts | 353° |
| 2026-05-08 13:15 | 44.95204 | 11.47767 | 38014 ft | 468 kts | 353° |
| 2026-05-08 13:16 | 45.01691 | 11.47309 | 38016 ft | 469 kts | 353° |
| 2026-05-08 13:16 | 45.08172 | 11.46848 | 38012 ft | 470 kts | 354° |
| 2026-05-08 13:17 | 45.14629 | 11.46390 | 38010 ft | 470 kts | 354° |
| 2026-05-08 13:17 | 45.21134 | 11.45927 | 38010 ft | 469 kts | 353° |
| 2026-05-08 13:18 | 45.27525 | 11.45472 | 38012 ft | 469 kts | 354° |
| 2026-05-08 13:18 | 45.33957 | 11.45013 | 38010 ft | 469 kts | 354° |
| 2026-05-08 13:19 | 45.40249 | 11.44565 | 38012 ft | 469 kts | 354° |
| 2026-05-08 13:19 | 45.46726 | 11.44102 | 38016 ft | 470 kts | 354° |
| 2026-05-08 13:20 | 45.52867 | 11.43660 | 38015 ft | 470 kts | 354° |
| 2026-05-08 13:20 | 45.59460 | 11.43185 | 38018 ft | 470 kts | 354° |
| 2026-05-08 13:21 | 45.65898 | 11.42721 | 38019 ft | 470 kts | 353° |
| 2026-05-08 13:21 | 45.72394 | 11.42250 | 38025 ft | 471 kts | 354° |
| 2026-05-08 13:22 | 45.78852 | 11.41783 | 38041 ft | 470 kts | 354° |
| 2026-05-08 13:22 | 45.85381 | 11.41308 | 38048 ft | 471 kts | 354° |
| 2026-05-08 13:23 | 45.91907 | 11.40831 | 38052 ft | 471 kts | 354° |
| 2026-05-08 13:23 | 45.98416 | 11.40355 | 38052 ft | 471 kts | 354° |
| 2026-05-08 13:24 | 46.04650 | 11.39901 | 38053 ft | 471 kts | 354° |
| 2026-05-08 13:24 | 46.11140 | 11.39488 | 38054 ft | 471 kts | 354° |
| 2026-05-08 13:25 | 46.17489 | 11.39129 | 38056 ft | 472 kts | 354° |
| 2026-05-08 13:25 | 46.23842 | 11.38781 | 37685 ft | 458 kts | 354° |
| 2026-05-08 13:26 | 46.26990 | 11.38610 | 37267 ft | 453 kts | 354° |
| 2026-05-08 13:26 | 46.29886 | 11.38448 | 36752 ft | 452 kts | 354° |
| 2026-05-08 13:26 | 46.33052 | 11.38265 | 36173 ft | 453 kts | 354° |
| 2026-05-08 13:26 | 46.36169 | 11.38079 | 35696 ft | 458 kts | 354° |
| 2026-05-08 13:27 | 46.39343 | 11.37887 | 35095 ft | 465 kts | 354° |
| 2026-05-08 13:27 | 46.42509 | 11.37696 | 34085 ft | 472 kts | 354° |
| 2026-05-08 13:27 | 46.45750 | 11.37499 | 32986 ft | 478 kts | 354° |
| 2026-05-08 13:27 | 46.49068 | 11.37299 | 32076 ft | 478 kts | 354° |
| 2026-05-08 13:28 | 46.52354 | 11.37106 | 31193 ft | 477 kts | 354° |
| 2026-05-08 13:28 | 46.55560 | 11.36919 | 30340 ft | 476 kts | 355° |
| 2026-05-08 13:28 | 46.58799 | 11.36730 | 29475 ft | 475 kts | 355° |
| 2026-05-08 13:28 | 46.62098 | 11.36533 | 28547 ft | 474 kts | 355° |
| 2026-05-08 13:29 | 46.65375 | 11.36337 | 27589 ft | 474 kts | 355° |
| 2026-05-08 13:29 | 46.68629 | 11.36144 | 26681 ft | 472 kts | 355° |
| 2026-05-08 13:29 | 46.71753 | 11.35963 | 26071 ft | 463 kts | 355° |
| 2026-05-08 13:29 | 46.74896 | 11.35780 | 25424 ft | 456 kts | 355° |
| 2026-05-08 13:30 | 46.78041 | 11.35621 | 24674 ft | 450 kts | 357° |
| 2026-05-08 13:30 | 46.81143 | 11.35677 | 23950 ft | 444 kts | 0° |
| 2026-05-08 13:30 | 46.84218 | 11.35926 | 23265 ft | 438 kts | 2° |
| 2026-05-08 13:30 | 46.87234 | 11.36276 | 22582 ft | 432 kts | 4° |
| 2026-05-08 13:31 | 46.90142 | 11.37077 | 21904 ft | 428 kts | 14° |
| 2026-05-08 13:31 | 46.92925 | 11.38556 | 21217 ft | 423 kts | 23° |
| 2026-05-08 13:31 | 46.95533 | 11.40471 | 20556 ft | 418 kts | 28° |
| 2026-05-08 13:31 | 46.97970 | 11.42756 | 19881 ft | 413 kts | 37° |
| 2026-05-08 13:32 | 47.00049 | 11.45543 | 19262 ft | 408 kts | 47° |
| 2026-05-08 13:32 | 47.01786 | 11.48777 | 18618 ft | 403 kts | 56° |
| 2026-05-08 13:32 | 47.03305 | 11.52340 | 17967 ft | 415 kts | 60° |
| 2026-05-08 13:32 | 47.04684 | 11.55981 | 17307 ft | 411 kts | 62° |
| 2026-05-08 13:33 | 47.05998 | 11.59658 | 16642 ft | 404 kts | 63° |
| 2026-05-08 13:33 | 47.07254 | 11.63254 | 16010 ft | 398 kts | 63° |
| 2026-05-08 13:33 | 47.08493 | 11.66818 | 15384 ft | 392 kts | 63° |
| 2026-05-08 13:33 | 47.09737 | 11.70367 | 14783 ft | 384 kts | 63° |
| 2026-05-08 13:34 | 47.10934 | 11.73581 | 14299 ft | 379 kts | 59° |
| 2026-05-08 13:34 | 47.12429 | 11.76740 | 14092 ft | 382 kts | 52° |
| 2026-05-08 13:34 | 47.14067 | 11.79510 | 13745 ft | 372 kts | 47° |
| 2026-05-08 13:34 | 47.15874 | 11.82204 | 13383 ft | 359 kts | 45° |
| 2026-05-08 13:35 | 47.17644 | 11.84703 | 13131 ft | 345 kts | 44° |
| 2026-05-08 13:35 | 47.19344 | 11.87066 | 12939 ft | 331 kts | 43° |
| 2026-05-08 13:35 | 47.21168 | 11.89063 | 12738 ft | 319 kts | 31° |
| 2026-05-08 13:35 | 47.23181 | 11.90275 | 12477 ft | 307 kts | 13° |
| 2026-05-08 13:36 | 47.25256 | 11.90758 | 12192 ft | 297 kts | 6° |
| 2026-05-08 13:36 | 47.27268 | 11.91039 | 11894 ft | 288 kts | 5° |
| 2026-05-08 13:36 | 47.29239 | 11.91321 | 11542 ft | 280 kts | 6° |
| 2026-05-08 13:36 | 47.31164 | 11.91639 | 11078 ft | 276 kts | 7° |
| 2026-05-08 13:37 | 47.33046 | 11.91941 | 10624 ft | 272 kts | 6° |
| 2026-05-08 13:37 | 47.34906 | 11.92221 | 10257 ft | 265 kts | 6° |
| 2026-05-08 13:37 | 47.36684 | 11.92483 | 10007 ft | 255 kts | 6° |
| 2026-05-08 13:37 | 47.38415 | 11.92739 | 9755 ft | 248 kts | 6° |
| 2026-05-08 13:38 | 47.40110 | 11.92628 | 9609 ft | 239 kts | 345° |
| 2026-05-08 13:38 | 47.41519 | 11.91518 | 9580 ft | 224 kts | 315° |
| 2026-05-08 13:38 | 47.42400 | 11.89727 | 9586 ft | 210 kts | 290° |
| 2026-05-08 13:38 | 47.42461 | 11.87643 | 9606 ft | 207 kts | 248° |
| 2026-05-08 13:39 | 47.41675 | 11.85943 | 9606 ft | 197 kts | 223° |
| 2026-05-08 13:39 | 47.40576 | 11.84836 | 9601 ft | 191 kts | 207° |
| 2026-05-08 13:39 | 47.39408 | 11.83928 | 9602 ft | 186 kts | 208° |
| 2026-05-08 13:39 | 47.38312 | 11.83021 | 9601 ft | 172 kts | 211° |
| 2026-05-08 13:40 | 47.37434 | 11.81860 | 9578 ft | 173 kts | 237° |
| 2026-05-08 13:40 | 47.36979 | 11.80197 | 9327 ft | 181 kts | 251° |
| 2026-05-08 13:40 | 47.36555 | 11.78405 | 8953 ft | 188 kts | 248° |
| 2026-05-08 13:40 | 47.36066 | 11.76612 | 8636 ft | 192 kts | 246° |
| 2026-05-08 13:41 | 47.35548 | 11.74779 | 8313 ft | 193 kts | 247° |
| 2026-05-08 13:41 | 47.35043 | 11.72953 | 8027 ft | 192 kts | 248° |
| 2026-05-08 13:41 | 47.34546 | 11.71144 | 7735 ft | 191 kts | 247° |
| 2026-05-08 13:41 | 47.34049 | 11.69356 | 7440 ft | 190 kts | 247° |
| 2026-05-08 13:42 | 47.33542 | 11.67543 | 7146 ft | 189 kts | 248° |
| 2026-05-08 13:42 | 47.33042 | 11.65752 | 6853 ft | 188 kts | 248° |
| 2026-05-08 13:42 | 47.32546 | 11.63967 | 6567 ft | 188 kts | 248° |
| 2026-05-08 13:42 | 47.32053 | 11.62204 | 6274 ft | 187 kts | 248° |
| 2026-05-08 13:43 | 47.31557 | 11.60436 | 5986 ft | 186 kts | 248° |
| 2026-05-08 13:43 | 47.31069 | 11.58692 | 5694 ft | 185 kts | 248° |
| 2026-05-08 13:43 | 47.30584 | 11.56949 | 5405 ft | 183 kts | 247° |
| 2026-05-08 13:43 | 47.30102 | 11.55218 | 5118 ft | 182 kts | 247° |
| 2026-05-08 13:44 | 47.29621 | 11.53497 | 4836 ft | 181 kts | 247° |
| 2026-05-08 13:44 | 47.29147 | 11.51807 | 4553 ft | 176 kts | 247° |
| 2026-05-08 13:44 | 47.28701 | 11.50210 | 4288 ft | 165 kts | 248° |
| 2026-05-08 13:44 | 47.28278 | 11.48701 | 4033 ft | 157 kts | 248° |
| 2026-05-08 13:45 | 47.27862 | 11.47228 | 3798 ft | 155 kts | 248° |
| 2026-05-08 13:45 | 47.27459 | 11.45799 | 3561 ft | 148 kts | 248° |
| 2026-05-08 13:45 | 47.27104 | 11.44414 | 3324 ft | 147 kts | 254° |
| 2026-05-08 13:45 | 47.26875 | 11.42959 | 3093 ft | 145 kts | 262° |
| 2026-05-08 13:46 | 47.26737 | 11.41497 | 2857 ft | 142 kts | 264° |
| 2026-05-08 13:46 | 47.26628 | 11.40072 | 2568 ft | 143 kts | 263° |
| 2026-05-08 13:46 | 47.26472 | 11.38638 | 2366 ft | 142 kts | 262° |
| 2026-05-08 13:46 | 47.26321 | 11.37196 | 2134 ft | 143 kts | 262° |
| 2026-05-08 13:47 | 47.26167 | 11.35747 | 1945 ft | 143 kts | 261° |
| 2026-05-08 13:47 | 47.26030 | 11.34494 | 1924 ft | 94 kts | 259° |
| 2026-05-08 13:47 | 47.25978 | 11.34021 | 1930 ft | 11 kts | 260° |
| 2026-05-08 13:47 | 47.25972 | 11.33964 | 1931 ft | 1 kts | 261° |
| 2026-05-08 13:48 | 47.25970 | 11.33946 | 1932 ft | 2 kts | 262° |
| 2026-05-08 13:48 | 47.25966 | 11.33907 | 1933 ft | 4 kts | 262° |
| 2026-05-08 13:48 | 47.25962 | 11.33858 | 1935 ft | 5 kts | 262° |
| 2026-05-08 13:48 | 47.25945 | 11.33721 | 1940 ft | 16 kts | 242° |
| 2026-05-08 13:49 | 47.25867 | 11.33756 | 1938 ft | 17 kts | 124° |
| 2026-05-08 13:49 | 47.25788 | 11.33936 | 1933 ft | 25 kts | 113° |
| 2026-05-08 13:49 | 47.25779 | 11.34137 | 1928 ft | 13 kts | 82° |
| 2026-05-08 13:49 | 47.25797 | 11.34310 | 1924 ft | 20 kts | 80° |
| 2026-05-08 13:50 | 47.25821 | 11.34531 | 1923 ft | 19 kts | 82° |
| 2026-05-08 13:50 | 47.25835 | 11.34688 | 1921 ft | 7 kts | 81° |
| 2026-05-08 13:50 | 47.25834 | 11.34724 | 1921 ft | 2 kts | 141° |
| 2026-05-08 13:50 | 47.25816 | 11.34738 | 1921 ft | 2 kts | 171° |
| 2026-05-08 13:51 | 47.25798 | 11.34742 | 1921 ft | 3 kts | 171° |
| 2026-05-08 13:51 | 47.25789 | 11.34744 | 1921 ft | 0 kts | 171° |